Time;durP1;ratioP1;P1;durP2;ratioP2;P2;SDS_P1;SDS_P2;PMS_P1;PMS_P2;Temp;Humidity;BMP_temperature;BMP_pressure;BME280_temperature;BME280_humidity;BME280_pressure;Samples;Min_cycle;Max_cycle;Signal;HPM_P1;HPM_P2
2021/09/05 00:00:14;;;;;;;8.50;7.45;;;19.90;99.90;;;;;;4948563;29;20517;-91
2021/09/05 00:02:40;;;;;;;9.77;8.18;;;19.90;99.90;;;;;;4951352;29;20747;-91
2021/09/05 00:05:06;;;;;;;10.70;8.32;;;19.80;99.90;;;;;;4952935;28;20302;-92
2021/09/05 00:07:32;;;;;;;9.00;7.72;;;19.80;99.90;;;;;;4947234;29;20020;-92
2021/09/05 00:09:57;;;;;;;8.18;7.38;;;19.80;99.90;;;;;;4943267;28;20039;-91
2021/09/05 00:12:23;;;;;;;9.98;8.63;;;19.80;99.90;;;;;;4932428;29;20127;-92
2021/09/05 00:14:49;;;;;;;10.85;7.75;;;19.80;99.90;;;;;;4934849;28;20490;-91
2021/09/05 00:17:15;;;;;;;9.13;8.18;;;19.80;99.90;;;;;;4932276;29;20024;-91
2021/09/05 00:19:41;;;;;;;9.57;8.15;;;19.80;99.90;;;;;;4933728;29;20027;-91
2021/09/05 00:22:06;;;;;;;9.40;7.78;;;19.70;99.90;;;;;;4946686;29;20067;-92
2021/09/05 00:24:32;;;;;;;9.15;8.23;;;19.70;99.90;;;;;;4928875;29;20032;-92
2021/09/05 00:26:58;;;;;;;10.63;7.47;;;19.70;99.90;;;;;;4926399;29;20408;-91
2021/09/05 00:29:25;;;;;;;9.20;7.97;;;19.60;99.90;;;;;;4931983;29;20287;-92
2021/09/05 00:31:52;;;;;;;9.82;8.10;;;19.60;99.90;;;;;;4945165;28;20031;-91
2021/09/05 00:34:18;;;;;;;10.07;7.72;;;19.60;99.90;;;;;;4931513;29;20012;-91
2021/09/05 00:36:44;;;;;;;8.80;7.90;;;19.60;99.90;;;;;;4932302;29;20042;-92
2021/09/05 00:39:09;;;;;;;7.93;6.85;;;19.50;99.90;;;;;;4949348;28;20508;-91
2021/09/05 00:41:35;;;;;;;8.40;7.60;;;19.50;99.90;;;;;;4952196;28;20035;-91
2021/09/05 00:44:09;;;;;;;7.82;7.03;;;19.50;99.90;;;;;;4950854;29;20039;-92
2021/09/05 00:46:37;;;;;;;11.80;7.88;;;19.50;99.90;;;;;;4951044;29;20034;-92
2021/09/05 00:49:05;;;;;;;9.25;7.65;;;19.50;99.90;;;;;;4951215;28;20039;-92
2021/09/05 00:51:33;;;;;;;8.40;7.53;;;19.50;99.90;;;;;;4943937;29;20055;-91
2021/09/05 00:54:02;;;;;;;8.77;7.85;;;19.40;99.90;;;;;;4946715;29;20106;-92
2021/09/05 00:56:29;;;;;;;8.70;7.85;;;19.40;99.90;;;;;;4951248;29;20023;-91
2021/09/05 00:59:02;;;;;;;9.75;7.45;;;19.40;99.90;;;;;;4950885;29;20035;-91
2021/09/05 01:01:28;;;;;;;8.38;7.53;;;19.40;99.90;;;;;;4945776;28;20028;-92
2021/09/05 01:03:53;;;;;;;9.00;7.78;;;19.40;99.90;;;;;;4947802;28;20043;-91
2021/09/05 01:06:20;;;;;;;8.25;7.28;;;19.40;99.90;;;;;;4949515;29;20020;-92
2021/09/05 01:08:48;;;;;;;11.18;8.10;;;19.30;99.90;;;;;;4952335;28;20303;-92
2021/09/05 01:11:14;;;;;;;8.93;7.70;;;19.30;99.90;;;;;;4925001;29;20021;-91
2021/09/05 01:13:40;;;;;;;9.25;7.35;;;19.30;99.90;;;;;;4929241;29;20107;-91
2021/09/05 01:16:06;;;;;;;11.23;7.82;;;19.30;99.90;;;;;;4937344;29;20079;-94
2021/09/05 01:18:31;;;;;;;8.38;7.53;;;19.30;99.90;;;;;;4933077;29;20039;-92
2021/09/05 01:20:57;;;;;;;9.50;7.85;;;19.30;99.90;;;;;;4932952;29;20540;-92
2021/09/05 01:23:23;;;;;;;8.70;7.72;;;19.20;99.90;;;;;;4933098;29;20035;-91
2021/09/05 01:25:48;;;;;;;8.55;7.60;;;19.20;99.90;;;;;;4928462;29;20036;-92
2021/09/05 01:28:14;;;;;;;7.75;7.05;;;19.10;99.90;;;;;;4926411;29;20020;-92
2021/09/05 01:30:40;;;;;;;10.20;7.72;;;19.10;99.90;;;;;;4923070;29;20027;-91
2021/09/05 01:33:06;;;;;;;9.48;7.72;;;19.10;99.90;;;;;;4932064;29;20457;-91
2021/09/05 01:35:35;;;;;;;12.05;8.32;;;19.20;99.90;;;;;;4924526;29;20032;-91
2021/09/05 01:38:00;;;;;;;9.40;8.48;;;19.20;99.90;;;;;;4935148;29;20495;-92
2021/09/05 01:40:26;;;;;;;10.25;8.40;;;19.20;99.90;;;;;;4923173;29;20091;-91
2021/09/05 01:42:52;;;;;;;8.75;7.88;;;19.20;99.90;;;;;;4926220;29;20036;-92
2021/09/05 01:45:18;;;;;;;11.27;8.52;;;19.20;99.90;;;;;;4935042;29;20071;-92
2021/09/05 01:47:43;;;;;;;9.90;8.63;;;19.20;99.90;;;;;;4936304;29;20078;-92
2021/09/05 01:50:10;;;;;;;12.50;8.05;;;19.20;99.90;;;;;;4936006;29;20032;-92
2021/09/05 01:52:35;;;;;;;9.45;8.30;;;19.20;99.90;;;;;;4935086;29;20023;-91
2021/09/05 01:55:01;;;;;;;9.75;8.43;;;19.20;99.90;;;;;;4934657;29;20031;-92
2021/09/05 01:57:27;;;;;;;9.80;8.07;;;19.20;99.90;;;;;;4934945;29;20023;-95
2021/09/05 01:59:52;;;;;;;9.95;8.02;;;19.30;99.90;;;;;;4950789;28;20479;-92
2021/09/05 02:02:18;;;;;;;10.48;8.35;;;19.20;99.90;;;;;;4934799;29;20040;-92
2021/09/05 02:04:44;;;;;;;8.88;7.55;;;19.20;99.90;;;;;;4934854;29;20059;-94
2021/09/05 02:07:09;;;;;;;10.52;8.30;;;19.20;99.90;;;;;;4934740;29;20378;-91
2021/09/05 02:09:35;;;;;;;9.15;7.88;;;19.10;99.90;;;;;;4950994;28;20027;-92
2021/09/05 02:12:00;;;;;;;9.57;7.72;;;19.10;99.90;;;;;;4931671;29;20032;-91
2021/09/05 02:14:26;;;;;;;11.82;7.65;;;19.10;99.90;;;;;;4935708;29;20075;-92
2021/09/05 02:16:52;;;;;;;11.75;8.15;;;19.10;99.90;;;;;;4935621;29;20111;-92
2021/09/05 02:19:17;;;;;;;8.50;7.70;;;19.10;99.90;;;;;;4931437;29;20409;-92
2021/09/05 02:21:43;;;;;;;8.63;7.75;;;19.10;99.90;;;;;;4944799;29;20051;-94
2021/09/05 02:24:09;;;;;;;8.82;7.45;;;19.00;99.90;;;;;;4935647;29;20488;-93
2021/09/05 02:26:34;;;;;;;11.45;8.52;;;19.00;99.90;;;;;;4934582;29;20176;-93
2021/09/05 02:29:00;;;;;;;10.30;7.80;;;19.00;99.90;;;;;;4935664;29;20016;-91
2021/09/05 02:31:26;;;;;;;10.77;8.52;;;18.90;99.90;;;;;;4934812;29;20031;-92
2021/09/05 02:33:52;;;;;;;10.05;8.35;;;18.90;99.90;;;;;;4950761;29;20505;-92
2021/09/05 02:36:17;;;;;;;9.05;8.13;;;18.90;99.90;;;;;;4934293;29;20035;-93
2021/09/05 02:38:43;;;;;;;12.55;8.73;;;18.90;99.90;;;;;;4947037;28;20031;-91
2021/09/05 02:41:09;;;;;;;10.20;8.18;;;18.90;99.90;;;;;;4940895;29;20155;-92
2021/09/05 02:43:35;;;;;;;11.23;9.27;;;18.90;99.90;;;;;;4953281;28;20035;-91
2021/09/05 02:46:00;;;;;;;9.75;8.52;;;18.90;99.90;;;;;;4954199;28;20051;-92
2021/09/05 02:48:26;;;;;;;9.85;8.88;;;18.90;99.90;;;;;;4939711;29;20046;-92
2021/09/05 02:50:52;;;;;;;10.52;8.05;;;18.90;99.90;;;;;;4952917;29;20130;-91
2021/09/05 02:53:17;;;;;;;10.40;8.98;;;18.90;99.90;;;;;;4943284;29;20012;-92
2021/09/05 02:55:43;;;;;;;10.60;8.52;;;18.90;99.90;;;;;;4947021;29;20033;-92
2021/09/05 02:58:09;;;;;;;10.10;8.65;;;18.80;99.90;;;;;;4941900;29;20027;-92
2021/09/05 03:00:34;;;;;;;10.48;9.10;;;18.80;99.90;;;;;;4952954;29;20270;-91
2021/09/05 03:03:00;;;;;;;10.35;8.45;;;18.80;99.90;;;;;;4952686;29;20047;-92
2021/09/05 03:05:26;;;;;;;11.73;9.18;;;18.80;99.90;;;;;;4954435;28;20038;-92
2021/09/05 03:07:51;;;;;;;11.32;9.35;;;18.80;99.90;;;;;;4952918;29;20589;-92
2021/09/05 03:10:17;;;;;;;11.35;9.25;;;18.80;99.90;;;;;;4954001;28;20053;-92
2021/09/05 03:12:43;;;;;;;11.73;9.55;;;18.80;99.90;;;;;;4936179;29;20102;-92
2021/09/05 03:15:09;;;;;;;12.10;9.00;;;18.80;99.90;;;;;;4937313;29;20131;-91
2021/09/05 03:17:35;;;;;;;11.15;9.60;;;18.70;99.90;;;;;;4952900;29;20076;-92
2021/09/05 03:20:01;;;;;;;10.50;9.38;;;18.70;99.90;;;;;;4945931;29;20162;-92
2021/09/05 03:22:26;;;;;;;11.88;9.52;;;18.70;99.90;;;;;;4938893;29;20032;-92
2021/09/05 03:24:52;;;;;;;10.95;9.85;;;18.70;99.90;;;;;;4946102;29;20016;-92
2021/09/05 03:27:18;;;;;;;11.13;8.82;;;18.70;99.90;;;;;;4947143;29;20534;-92
2021/09/05 03:29:43;;;;;;;11.05;9.88;;;18.60;99.90;;;;;;4951557;28;20023;-92
2021/09/05 03:32:09;;;;;;;11.02;9.52;;;18.60;99.90;;;;;;4942433;29;20115;-92
2021/09/05 03:34:35;;;;;;;13.30;9.43;;;18.60;99.90;;;;;;4932909;29;20024;-92
2021/09/05 03:37:00;;;;;;;11.80;9.82;;;18.60;99.90;;;;;;4941142;29;20059;-91
2021/09/05 03:39:26;;;;;;;10.77;9.38;;;18.50;99.90;;;;;;4952025;28;20034;-92
2021/09/05 03:41:52;;;;;;;10.48;9.38;;;18.50;99.90;;;;;;4928128;29;20080;-92
2021/09/05 03:44:17;;;;;;;9.73;8.73;;;18.50;99.90;;;;;;4932860;29;20389;-92
2021/09/05 03:46:43;;;;;;;13.20;9.75;;;18.50;99.90;;;;;;4948879;28;20032;-92
2021/09/05 03:49:09;;;;;;;13.30;9.65;;;18.50;99.90;;;;;;4932815;29;20051;-91
2021/09/05 03:51:34;;;;;;;12.80;9.32;;;18.40;99.90;;;;;;4948667;28;20028;-92
2021/09/05 03:54:00;;;;;;;11.75;9.45;;;18.40;99.90;;;;;;4932900;29;20071;-93
2021/09/05 03:56:26;;;;;;;10.93;9.43;;;18.40;99.90;;;;;;4933496;29;20031;-92
2021/09/05 03:58:51;;;;;;;12.05;8.82;;;18.40;99.90;;;;;;4926037;29;20036;-92
2021/09/05 04:01:17;;;;;;;12.50;9.43;;;18.40;99.90;;;;;;4927154;29;20027;-93
2021/09/05 04:03:43;;;;;;;11.30;10.10;;;18.30;99.90;;;;;;4932294;29;20559;-91
2021/09/05 04:06:08;;;;;;;10.35;8.75;;;18.30;99.90;;;;;;4932876;29;20051;-91
2021/09/05 04:08:45;;;;;;;13.02;9.65;;;18.30;99.90;;;;;;4932278;29;20054;-92
2021/09/05 04:11:11;;;;;;;11.27;9.00;;;18.30;99.90;;;;;;4932878;29;20038;-92
2021/09/05 04:13:39;;;;;;;10.60;8.95;;;18.20;99.90;;;;;;4948649;29;20027;-91
2021/09/05 04:16:05;;;;;;;11.05;9.13;;;18.20;99.90;;;;;;4944819;29;20023;-92
2021/09/05 04:18:31;;;;;;;11.57;9.50;;;18.20;99.90;;;;;;4952009;29;20122;-92
2021/09/05 04:20:57;;;;;;;10.73;9.63;;;18.20;99.90;;;;;;4944702;29;20038;-91
2021/09/05 04:23:22;;;;;;;12.73;9.13;;;18.20;99.90;;;;;;4952742;28;20039;-92
2021/09/05 04:25:48;;;;;;;9.98;8.68;;;18.20;99.90;;;;;;4943770;28;20544;-92
2021/09/05 04:28:14;;;;;;;14.27;9.82;;;18.20;99.90;;;;;;4945823;29;20031;-92
2021/09/05 04:30:39;;;;;;;11.35;8.60;;;18.20;99.90;;;;;;4951718;29;20028;-92
2021/09/05 04:33:05;;;;;;;14.63;10.00;;;18.20;99.90;;;;;;4951778;29;20031;-94
2021/09/05 04:35:31;;;;;;;10.95;9.77;;;18.20;99.90;;;;;;4949140;28;20048;-92
2021/09/05 04:37:57;;;;;;;10.55;9.45;;;18.20;99.90;;;;;;4942222;29;20027;-94
2021/09/05 04:40:23;;;;;;;11.68;9.73;;;18.20;99.90;;;;;;4951355;29;20039;-91
2021/09/05 04:42:49;;;;;;;13.15;9.07;;;18.20;99.90;;;;;;4951328;28;20089;-91
2021/09/05 04:45:14;;;;;;;11.80;9.02;;;18.10;99.90;;;;;;4951313;29;20535;-92
2021/09/05 04:47:40;;;;;;;10.90;8.98;;;18.10;99.90;;;;;;4949952;28;20035;-92
2021/09/05 04:50:06;;;;;;;11.05;9.25;;;18.10;99.90;;;;;;4935175;29;20035;-91
2021/09/05 04:52:32;;;;;;;11.50;8.48;;;18.10;99.90;;;;;;4944359;29;20059;-91
2021/09/05 04:54:57;;;;;;;10.32;9.05;;;18.10;99.90;;;;;;4933560;29;20083;-91
2021/09/05 04:57:23;;;;;;;10.23;9.05;;;18.10;99.90;;;;;;4937598;29;20399;-91
2021/09/05 04:59:49;;;;;;;10.95;9.27;;;18.10;99.90;;;;;;4951159;29;20560;-92
2021/09/05 05:02:14;;;;;;;14.93;10.02;;;18.10;99.90;;;;;;4952234;28;20043;-93
2021/09/05 05:04:40;;;;;;;13.23;10.57;;;18.10;99.90;;;;;;4942426;28;20123;-91
2021/09/05 05:07:06;;;;;;;13.50;10.05;;;18.10;99.90;;;;;;4945846;28;20062;-92
2021/09/05 05:09:32;;;;;;;13.00;10.10;;;18.10;99.90;;;;;;4952010;29;20028;-92
2021/09/05 05:11:58;;;;;;;11.10;9.90;;;18.10;99.90;;;;;;4964820;28;20035;-92
2021/09/05 05:14:24;;;;;;;12.48;11.18;;;18.10;99.90;;;;;;4935131;29;20106;-91
2021/09/05 05:16:49;;;;;;;12.52;10.98;;;18.10;99.90;;;;;;4935754;29;20042;-92
2021/09/05 05:19:15;;;;;;;14.57;11.52;;;18.10;99.90;;;;;;4948455;28;20028;-92
2021/09/05 05:21:41;;;;;;;12.05;10.68;;;18.10;99.90;;;;;;4933092;29;20036;-92
2021/09/05 05:24:07;;;;;;;14.00;10.18;;;18.10;99.90;;;;;;4934589;29;20087;-92
2021/09/05 05:26:33;;;;;;;14.27;10.88;;;18.10;99.90;;;;;;4935694;29;20016;-94
2021/09/05 05:29:00;;;;;;;14.57;10.52;;;18.10;99.90;;;;;;4948508;28;20456;-92
2021/09/05 05:31:28;;;;;;;11.10;9.90;;;18.10;99.90;;;;;;4935820;29;20055;-91
2021/09/05 05:33:53;;;;;;;13.07;10.30;;;18.10;99.90;;;;;;4951582;28;20195;-91
2021/09/05 05:36:19;;;;;;;13.63;10.18;;;18.10;99.90;;;;;;4937712;29;20536;-91
2021/09/05 05:38:45;;;;;;;11.73;10.52;;;18.10;99.90;;;;;;4935495;29;20757;-92
2021/09/05 05:41:12;;;;;;;10.70;9.60;;;18.10;99.90;;;;;;4936480;29;20465;-92
2021/09/05 05:43:37;;;;;;;12.77;10.05;;;18.10;99.90;;;;;;4940923;29;20410;-93
2021/09/05 05:46:03;;;;;;;11.20;10.00;;;18.10;99.90;;;;;;4954328;29;20031;-92
2021/09/05 05:48:29;;;;;;;12.73;10.25;;;18.10;99.90;;;;;;4935150;28;20028;-91
2021/09/05 05:50:54;;;;;;;10.85;9.63;;;18.10;99.90;;;;;;4951026;28;20385;-92
2021/09/05 05:53:21;;;;;;;13.05;10.65;;;18.20;99.90;;;;;;4950817;28;20468;-92
2021/09/05 05:55:47;;;;;;;13.05;9.98;;;18.20;99.90;;;;;;4963261;28;20023;-92
2021/09/05 05:58:13;;;;;;;11.52;10.13;;;18.20;99.90;;;;;;4935650;29;20042;-92
2021/09/05 06:00:39;;;;;;;13.57;10.38;;;18.30;99.90;;;;;;4950853;28;20114;-91
2021/09/05 06:03:07;;;;;;;11.20;10.10;;;18.30;99.90;;;;;;4950268;29;20059;-92
2021/09/05 06:05:34;;;;;;;13.75;10.35;;;18.40;99.90;;;;;;4954042;29;20043;-92
2021/09/05 06:08:03;;;;;;;14.98;10.20;;;18.40;99.90;;;;;;4954099;28;20031;-92
2021/09/05 06:10:30;;;;;;;13.25;10.10;;;18.50;99.90;;;;;;4955267;28;20053;-92
2021/09/05 06:12:56;;;;;;;14.25;10.13;;;18.50;99.90;;;;;;4951597;28;20118;-91
2021/09/05 06:15:23;;;;;;;11.85;9.48;;;18.60;99.90;;;;;;4935922;29;20464;-92
2021/09/05 06:17:49;;;;;;;10.73;9.57;;;18.60;99.90;;;;;;4935397;29;20283;-90
2021/09/05 06:20:14;;;;;;;11.60;9.07;;;18.70;99.90;;;;;;4935240;29;20066;-90
2021/09/05 06:22:40;;;;;;;11.73;9.27;;;18.80;99.90;;;;;;4949202;28;20056;-94
2021/09/05 06:25:06;;;;;;;11.25;9.50;;;18.80;99.90;;;;;;4936468;29;20039;-91
2021/09/05 06:27:32;;;;;;;12.20;9.32;;;18.90;99.90;;;;;;4935227;29;20035;-91
2021/09/05 06:30:00;;;;;;;10.57;8.98;;;18.90;99.90;;;;;;4937276;29;20047;-95
2021/09/05 06:32:27;;;;;;;10.80;9.65;;;19.00;99.90;;;;;;4948110;28;20036;-91
2021/09/05 06:34:53;;;;;;;10.57;9.18;;;19.10;99.90;;;;;;4926388;29;20396;-90
2021/09/05 06:37:18;;;;;;;10.55;9.27;;;19.20;99.90;;;;;;4936578;29;20031;-90
2021/09/05 06:39:44;;;;;;;10.27;8.90;;;19.20;99.90;;;;;;4936673;29;20457;-90
2021/09/05 06:42:10;;;;;;;9.52;8.50;;;19.30;99.90;;;;;;4937380;29;20028;-91
2021/09/05 06:44:36;;;;;;;11.32;9.15;;;19.30;99.90;;;;;;4934532;29;20040;-91
2021/09/05 06:47:02;;;;;;;10.25;7.80;;;19.40;99.90;;;;;;4935259;29;20039;-90
2021/09/05 06:49:28;;;;;;;10.23;8.48;;;19.40;99.90;;;;;;4935096;29;20028;-95
2021/09/05 06:51:54;;;;;;;12.77;9.18;;;19.40;99.90;;;;;;4934867;29;20083;-91
2021/09/05 06:54:19;;;;;;;11.68;8.18;;;19.50;99.90;;;;;;4947916;28;20028;-90
2021/09/05 06:56:45;;;;;;;11.90;9.10;;;19.50;99.90;;;;;;4931394;29;20108;-91
2021/09/05 06:59:11;;;;;;;10.25;8.23;;;19.50;99.90;;;;;;4935291;29;20016;-91
2021/09/05 07:01:36;;;;;;;9.95;7.97;;;19.60;99.90;;;;;;4936129;29;20032;-92
2021/09/05 07:04:02;;;;;;;10.55;8.23;;;19.60;99.90;;;;;;4936552;29;20071;-90
2021/09/05 07:06:28;;;;;;;9.90;8.55;;;19.80;99.90;;;;;;4934653;29;20055;-91
2021/09/05 07:08:53;;;;;;;9.18;8.20;;;19.90;99.90;;;;;;4935403;29;20020;-91
2021/09/05 07:11:19;;;;;;;11.65;8.38;;;20.00;99.90;;;;;;4934383;29;20055;-91
2021/09/05 07:13:45;;;;;;;8.57;7.15;;;20.10;99.90;;;;;;4936830;29;20020;-91
2021/09/05 07:16:10;;;;;;;9.57;7.38;;;20.20;99.90;;;;;;4953264;29;20487;-92
2021/09/05 07:18:36;;;;;;;11.00;7.28;;;20.20;99.90;;;;;;4953148;29;20038;-92
2021/09/05 07:21:02;;;;;;;9.40;6.82;;;20.30;99.90;;;;;;4953441;28;20492;-92
2021/09/05 07:23:32;;;;;;;8.02;6.78;;;20.40;99.90;;;;;;4940683;28;20051;-92
2021/09/05 07:25:57;;;;;;;6.93;6.20;;;20.50;99.90;;;;;;4954179;28;20026;-92
2021/09/05 07:28:23;;;;;;;7.90;6.20;;;20.50;99.90;;;;;;4953402;28;20027;-92
2021/09/05 07:30:49;;;;;;;8.38;5.95;;;20.60;99.90;;;;;;4938619;29;20027;-92
2021/09/05 07:33:15;;;;;;;7.15;6.40;;;20.70;99.90;;;;;;4943321;29;20051;-92
2021/09/05 07:35:40;;;;;;;6.82;5.82;;;20.80;99.90;;;;;;4949832;29;20030;-89
2021/09/05 07:38:06;;;;;;;6.28;5.68;;;20.90;99.90;;;;;;4953150;28;20170;-89
2021/09/05 07:40:32;;;;;;;7.30;5.60;;;21.00;99.90;;;;;;4952061;29;20027;-90
2021/09/05 07:42:58;;;;;;;8.70;5.35;;;21.10;99.90;;;;;;4953039;28;20531;-91
2021/09/05 07:45:24;;;;;;;6.05;5.40;;;21.10;99.90;;;;;;4938333;28;20092;-89
2021/09/05 07:47:50;;;;;;;5.60;5.00;;;21.20;99.90;;;;;;4933598;29;20019;-89
2021/09/05 07:50:15;;;;;;;6.18;4.38;;;21.30;99.90;;;;;;4933831;29;20118;-90
2021/09/05 07:52:41;;;;;;;5.05;4.55;;;21.30;99.90;;;;;;4948425;28;20036;-90
2021/09/05 07:55:07;;;;;;;6.63;4.15;;;21.40;99.90;;;;;;4934327;29;20505;-93
2021/09/05 07:57:33;;;;;;;5.93;4.05;;;21.50;99.90;;;;;;4925589;29;20758;-92
2021/09/05 07:59:59;;;;;;;4.75;4.30;;;21.60;99.90;;;;;;4946483;28;20019;-88
2021/09/05 08:02:24;;;;;;;6.72;4.20;;;21.70;99.90;;;;;;4935094;29;20526;-91
2021/09/05 08:04:50;;;;;;;5.18;4.22;;;21.70;99.90;;;;;;4934674;29;20457;-89
2021/09/05 08:07:16;;;;;;;4.93;4.07;;;21.80;99.90;;;;;;4932803;29;20074;-88
2021/09/05 08:09:41;;;;;;;6.25;4.05;;;21.90;99.90;;;;;;4938411;29;20081;-90
2021/09/05 08:12:07;;;;;;;3.83;3.42;;;22.00;99.90;;;;;;4942761;28;20496;-90
2021/09/05 08:14:34;;;;;;;4.43;3.60;;;22.10;99.90;;;;;;4943758;29;20456;-89
2021/09/05 08:17:00;;;;;;;4.50;4.05;;;22.20;99.90;;;;;;4933380;29;20031;-89
2021/09/05 08:19:25;;;;;;;5.93;3.92;;;22.20;99.90;;;;;;4933283;29;20024;-89
2021/09/05 08:21:51;;;;;;;3.78;3.20;;;22.30;99.90;;;;;;4932053;29;20397;-90
2021/09/05 08:24:20;;;;;;;4.00;3.38;;;22.30;99.90;;;;;;4933393;29;20040;-90
2021/09/05 08:26:46;;;;;;;4.15;3.63;;;22.40;99.90;;;;;;4932173;29;20168;-90
2021/09/05 08:29:11;;;;;;;4.28;3.78;;;22.60;99.90;;;;;;4933755;29;20114;-90
2021/09/05 08:31:37;;;;;;;4.30;3.50;;;22.60;99.90;;;;;;4933190;29;20028;-93
2021/09/05 08:34:03;;;;;;;4.38;3.63;;;22.60;99.90;;;;;;4933568;29;20114;-90
2021/09/05 08:36:31;;;;;;;4.82;4.00;;;22.70;99.90;;;;;;4933139;29;20504;-90
2021/09/05 08:38:57;;;;;;;5.65;4.13;;;22.80;99.90;;;;;;4931648;29;20579;-90
2021/09/05 08:41:24;;;;;;;4.30;3.90;;;22.90;99.90;;;;;;4933790;29;20027;-90
2021/09/05 08:43:50;;;;;;;6.22;3.92;;;23.00;99.90;;;;;;4935716;29;20031;-89
2021/09/05 08:46:17;;;;;;;4.60;4.10;;;23.10;99.90;;;;;;4933628;29;20035;-90
2021/09/05 08:48:44;;;;;;;7.50;3.95;;;23.10;99.90;;;;;;4937023;29;20508;-90
2021/09/05 08:51:11;;;;;;;8.20;4.07;;;23.20;99.90;;;;;;4937216;29;20024;-89
2021/09/05 08:53:37;;;;;;;4.35;3.95;;;23.30;99.90;;;;;;4937054;29;20038;-90
2021/09/05 08:56:03;;;;;;;4.78;3.63;;;23.30;99.90;;;;;;4937015;29;20031;-89
2021/09/05 08:58:28;;;;;;;5.55;3.97;;;23.40;99.90;;;;;;4936919;29;20031;-90
2021/09/05 09:00:54;;;;;;;4.70;3.95;;;23.50;99.90;;;;;;4936720;29;20031;-90
2021/09/05 09:03:23;;;;;;;5.43;4.20;;;23.50;99.90;;;;;;4936438;29;20044;-90
2021/09/05 09:05:54;;;;;;;5.10;3.72;;;23.60;99.90;;;;;;4936985;29;20114;-91
2021/09/05 09:08:22;;;;;;;6.78;3.70;;;23.70;99.90;;;;;;4935378;29;20055;-89
2021/09/05 09:10:58;;;;;;;6.65;3.85;;;23.80;99.90;;;;;;4936937;29;20051;-90
2021/09/05 09:13:38;;;;;;;4.53;3.20;;;23.90;99.90;;;;;;4936484;29;20518;-90
2021/09/05 09:16:09;;;;;;;4.63;3.65;;;24.00;99.90;;;;;;4935286;29;20024;-90
2021/09/05 09:18:36;;;;;;;3.80;3.40;;;24.10;99.90;;;;;;4936599;29;20024;-90
2021/09/05 09:21:06;;;;;;;4.90;4.10;;;24.10;99.90;;;;;;4936900;29;20019;-90
2021/09/05 09:23:37;;;;;;;4.35;3.72;;;24.20;99.90;;;;;;4950986;29;20102;-91
2021/09/05 09:26:12;;;;;;;5.88;3.92;;;24.20;99.90;;;;;;4936828;29;20040;-90
2021/09/05 09:28:39;;;;;;;4.28;3.85;;;24.30;99.90;;;;;;4936398;29;20051;-90
2021/09/05 09:31:11;;;;;;;4.70;3.55;;;24.40;99.90;;;;;;4936320;29;20215;-90
2021/09/05 09:33:37;;;;;;;3.97;3.50;;;24.40;99.90;;;;;;4936175;29;20111;-90
2021/09/05 09:36:04;;;;;;;5.63;3.60;;;24.40;99.90;;;;;;4936257;29;20031;-90
2021/09/05 09:38:31;;;;;;;4.28;3.20;;;24.50;99.90;;;;;;4935076;29;20028;-90
2021/09/05 09:41:11;;;;;;;4.00;3.60;;;24.60;99.90;;;;;;4936164;29;20055;-90
2021/09/05 09:43:55;;;;;;;3.55;3.25;;;24.70;99.90;;;;;;4934974;29;20040;-90
2021/09/05 09:46:24;;;;;;;3.53;3.22;;;24.80;99.90;;;;;;4940838;28;20024;-90
2021/09/05 09:48:52;;;;;;;4.38;3.42;;;24.80;99.90;;;;;;4936434;29;20066;-90
2021/09/05 09:51:18;;;;;;;5.50;3.72;;;24.80;99.90;;;;;;4938733;28;20444;-90
2021/09/05 09:53:44;;;;;;;4.38;3.58;;;24.80;99.90;;;;;;4936695;29;20047;-91
2021/09/05 09:56:14;;;;;;;5.07;3.42;;;24.90;99.90;;;;;;4947840;28;20060;-90
2021/09/05 09:58:39;;;;;;;4.00;3.05;;;25.00;99.90;;;;;;4951069;28;20133;-90
2021/09/05 10:01:05;;;;;;;5.43;3.17;;;25.00;99.90;;;;;;4955139;28;20090;-90
2021/09/05 10:03:32;;;;;;;8.07;3.60;;;25.10;99.90;;;;;;4943168;28;20051;-90
2021/09/05 10:06:02;;;;;;;6.15;3.65;;;25.20;99.90;;;;;;4935615;29;20020;-90
2021/09/05 10:08:32;;;;;;;5.15;3.13;;;25.20;99.90;;;;;;4935839;29;20032;-90
2021/09/05 10:10:59;;;;;;;6.60;3.40;;;25.10;99.90;;;;;;4935368;29;20102;-91
2021/09/05 10:13:31;;;;;;;5.07;3.50;;;25.20;99.90;;;;;;4934410;29;20429;-90
2021/09/05 10:15:58;;;;;;;5.47;3.47;;;25.30;99.90;;;;;;4934512;29;20027;-90
2021/09/05 10:18:24;;;;;;;4.90;2.75;;;25.50;99.90;;;;;;4935588;29;20027;-90
2021/09/05 10:20:50;;;;;;;5.28;3.88;;;25.70;99.90;;;;;;4935602;29;20059;-90
2021/09/05 10:23:31;;;;;;;6.07;4.20;;;25.70;99.90;;;;;;4935303;29;20028;-91
2021/09/05 10:26:10;;;;;;;7.00;4.03;;;25.60;99.90;;;;;;4935378;29;20036;-91
2021/09/05 10:28:41;;;;;;;4.57;4.18;;;25.60;99.90;;;;;;4934041;29;20449;-90
2021/09/05 10:31:09;;;;;;;6.97;3.47;;;25.70;99.90;;;;;;4935256;29;20179;-91
2021/09/05 10:33:38;;;;;;;4.78;3.17;;;25.80;99.90;;;;;;4934160;29;20091;-92
2021/09/05 10:36:10;;;;;;;6.00;3.30;;;25.90;99.90;;;;;;4935287;29;20031;-90
2021/09/05 10:38:38;;;;;;;4.13;3.13;;;25.90;99.90;;;;;;4935215;29;20485;-91
2021/09/05 10:41:27;;;;;;;4.57;3.47;;;26.00;99.90;;;;;;4935206;29;20469;-89
2021/09/05 10:43:59;;;;;;;5.57;3.65;;;26.00;99.90;;;;;;4931981;29;20094;-90
2021/09/05 10:46:30;;;;;;;6.03;3.65;;;26.00;99.90;;;;;;4935593;29;20485;-89
2021/09/05 10:49:03;;;;;;;4.30;3.38;;;26.00;99.90;;;;;;4935108;29;20083;-90
2021/09/05 10:51:46;;;;;;;3.95;3.60;;;26.00;99.90;;;;;;4938993;29;20095;-92
2021/09/05 10:54:21;;;;;;;3.85;3.45;;;26.00;99.90;;;;;;4945225;28;20043;-91
2021/09/05 10:56:47;;;;;;;5.30;3.65;;;25.90;99.90;;;;;;4934283;29;20484;-90
2021/09/05 10:59:16;;;;;;;5.15;3.78;;;26.10;99.90;;;;;;4935593;29;20028;-90
2021/09/05 11:01:57;;;;;;;5.38;4.32;;;26.20;99.90;;;;;;4949571;28;20024;-90
2021/09/05 11:04:29;;;;;;;5.38;4.38;;;26.30;99.90;;;;;;4949531;28;20048;-90
2021/09/05 11:07:06;;;;;;;7.15;5.38;;;26.50;99.90;;;;;;4935849;29;20024;-90
2021/09/05 11:09:32;;;;;;;7.45;5.68;;;26.40;99.90;;;;;;4934066;29;20031;-90
2021/09/05 11:12:11;;;;;;;6.28;5.68;;;26.40;99.90;;;;;;4935333;29;20032;-90
2021/09/05 11:14:37;;;;;;;7.03;6.13;;;26.40;99.90;;;;;;4935225;29;20028;-90
2021/09/05 11:17:10;;;;;;;6.72;5.45;;;26.40;99.90;;;;;;4950104;28;20116;-91
2021/09/05 11:20:03;;;;;;;7.70;6.22;;;26.30;99.90;;;;;;4928048;29;20028;-90
2021/09/05 11:22:32;;;;;;;7.65;6.90;;;26.30;99.90;;;;;;4932706;29;20043;-91
2021/09/05 11:25:12;;;;;;;11.68;10.05;;;26.20;99.90;;;;;;4936775;29;20056;-89
2021/09/05 11:27:40;;;;;;;9.95;6.50;;;26.40;99.90;;;;;;4936021;29;20032;-89
2021/09/05 11:30:08;;;;;;;6.13;5.53;;;26.40;99.90;;;;;;4944286;29;20019;-89
2021/09/05 11:32:35;;;;;;;6.18;5.35;;;26.30;99.90;;;;;;4934453;29;20481;-88
2021/09/05 11:35:01;;;;;;;6.82;4.63;;;26.40;99.90;;;;;;4942161;29;20129;-90
2021/09/05 11:37:37;;;;;;;5.45;4.50;;;26.50;99.90;;;;;;4945440;29;20026;-90
2021/09/05 11:40:06;;;;;;;6.25;3.63;;;26.50;99.90;;;;;;4946487;29;20196;-89
2021/09/05 11:42:32;;;;;;;4.13;3.65;;;26.50;99.90;;;;;;4945159;29;20358;-90
2021/09/05 11:45:11;;;;;;;5.40;4.10;;;26.80;99.90;;;;;;4944061;29;20106;-90
2021/09/05 11:47:36;;;;;;;7.95;4.68;;;26.80;99.90;;;;;;4945326;29;20191;-90
2021/09/05 11:50:04;;;;;;;4.20;3.58;;;26.90;99.90;;;;;;4936946;29;20175;-90
2021/09/05 11:52:33;;;;;;;5.53;3.38;;;27.10;99.90;;;;;;4951048;28;20477;-89
2021/09/05 11:54:59;;;;;;;4.10;3.10;;;27.10;99.90;;;;;;4932993;29;20448;-92
2021/09/05 11:57:25;;;;;;;4.05;3.38;;;27.10;99.90;;;;;;4949350;29;20023;-90
2021/09/05 11:59:57;;;;;;;4.25;3.33;;;27.10;99.90;;;;;;4934518;29;20054;-89
2021/09/05 12:02:36;;;;;;;4.53;3.30;;;27.20;99.90;;;;;;4933896;29;20058;-90
2021/09/05 12:05:06;;;;;;;5.38;3.58;;;27.00;99.90;;;;;;4934052;29;20078;-91
2021/09/05 12:07:37;;;;;;;4.30;3.70;;;27.10;99.90;;;;;;4952857;29;20016;-90
2021/09/05 12:10:22;;;;;;;9.68;3.90;;;27.10;99.90;;;;;;4952513;29;20031;-90
2021/09/05 12:13:06;;;;;;;3.88;3.30;;;27.30;99.90;;;;;;4939419;29;20095;-91
2021/09/05 12:15:35;;;;;;;5.57;3.30;;;27.10;99.90;;;;;;4968383;28;20152;-89
2021/09/05 12:18:01;;;;;;;4.82;3.00;;;27.00;99.90;;;;;;4951666;29;20023;-90
2021/09/05 12:20:41;;;;;;;4.93;3.17;;;27.10;99.90;;;;;;4946340;28;20374;-92
2021/09/05 12:23:30;;;;;;;3.63;2.95;;;27.30;99.30;;;;;;4941160;29;20020;-92
2021/09/05 12:26:16;;;;;;;3.85;2.90;;;27.50;99.40;;;;;;4942157;29;20048;-91
2021/09/05 12:28:55;;;;;;;4.53;3.40;;;27.40;99.00;;;;;;4944929;29;20027;-90
2021/09/05 12:31:38;;;;;;;5.95;3.30;;;27.40;99.10;;;;;;4942405;29;20024;-94
2021/09/05 12:34:03;;;;;;;5.70;3.13;;;27.30;98.70;;;;;;4945709;29;20042;-89
2021/09/05 12:36:29;;;;;;;4.68;3.20;;;27.40;99.30;;;;;;4942837;29;20359;-91
2021/09/05 12:38:57;;;;;;;7.38;3.15;;;27.90;98.70;;;;;;4944814;29;20288;-90
2021/09/05 12:41:25;;;;;;;4.80;2.80;;;28.20;97.90;;;;;;4944353;29;20215;-90